createdAt,value
2018-02-18T00:00:26.732Z,2.77
2018-02-18T00:01:26.740Z,2.79
2018-02-18T00:02:26.750Z,3.02
2018-02-18T00:03:26.794Z,3.00
2018-02-18T00:04:26.788Z,3.05
2018-02-18T00:05:26.809Z,3.05
2018-02-18T00:06:26.816Z,2.95
2018-02-18T00:07:26.833Z,2.84
2018-02-18T00:08:26.857Z,2.79
2018-02-18T00:09:26.849Z,2.81
2018-02-18T00:10:26.866Z,2.87
2018-02-18T00:11:26.879Z,2.75
2018-02-18T00:12:26.893Z,2.87
2018-02-18T00:13:26.934Z,2.85
2018-02-18T00:14:26.921Z,2.81
2018-02-18T00:15:26.968Z,2.69
2018-02-18T00:16:26.942Z,2.77
2018-02-18T00:17:26.961Z,2.82
2018-02-18T00:18:26.987Z,2.84
2018-02-18T00:19:27.018Z,2.89
2018-02-18T00:20:27.020Z,2.96
2018-02-18T00:21:27.011Z,2.87
2018-02-18T00:22:27.031Z,2.79
2018-02-18T00:23:27.041Z,3.02
2018-02-18T00:24:27.054Z,3.02
2018-02-18T00:25:27.071Z,3.06
2018-02-18T00:26:27.122Z,2.81
2018-02-18T00:27:27.108Z,2.69
2018-02-18T00:28:27.112Z,2.77
2018-02-18T00:29:27.127Z,2.75
2018-02-18T00:30:27.137Z,2.90
2018-02-18T00:31:27.170Z,3.06
2018-02-18T00:32:27.192Z,2.81
2018-02-18T00:33:27.198Z,3.02
2018-02-18T00:34:27.227Z,2.84
2018-02-18T00:35:27.245Z,2.85
2018-02-18T00:36:27.231Z,2.78
2018-02-18T00:37:27.242Z,3.02
2018-02-18T00:38:27.249Z,2.96
2018-02-18T00:39:27.275Z,2.93
2018-02-18T00:40:27.305Z,2.90
2018-02-18T00:41:27.296Z,3.00
2018-02-18T00:42:27.318Z,2.97
2018-02-18T00:43:27.369Z,3.05
2018-02-18T00:44:30.560Z,3.05
2018-02-18T00:45:27.356Z,3.18
2018-02-18T00:46:27.379Z,2.93
2018-02-18T00:47:27.379Z,2.84
2018-02-18T00:48:27.406Z,2.81
2018-02-18T00:49:27.412Z,3.02
2018-02-18T00:50:27.420Z,3.03
2018-02-18T00:51:27.426Z,3.02
2018-02-18T00:52:27.436Z,2.97
2018-02-18T00:53:27.488Z,3.00
2018-02-18T00:54:27.463Z,2.97
2018-02-18T00:55:27.476Z,3.06
2018-02-18T00:56:27.490Z,3.06
2018-02-18T00:57:27.509Z,3.23
2018-02-18T00:58:27.533Z,3.17
2018-02-18T00:59:27.533Z,3.08
2018-02-18T01:00:27.566Z,3.10
2018-02-18T01:01:27.557Z,2.97
2018-02-18T01:02:27.584Z,3.05
2018-02-18T01:03:27.587Z,3.20
2018-02-18T01:04:27.600Z,3.17
2018-02-18T01:05:27.643Z,2.95
2018-02-18T01:06:27.629Z,3.00
2018-02-18T01:07:27.642Z,2.84
2018-02-18T01:08:27.653Z,2.96
2018-02-18T01:09:27.671Z,3.03
2018-02-18T01:10:27.705Z,2.96
2018-02-18T01:11:27.691Z,2.95
2018-02-18T01:12:27.713Z,2.95
2018-02-18T01:13:27.719Z,3.05
2018-02-18T01:14:27.728Z,2.93
2018-02-18T01:15:27.770Z,2.77
2018-02-18T01:16:27.761Z,2.82
2018-02-18T01:17:27.774Z,3.08
2018-02-18T01:18:27.786Z,3.06
2018-02-18T01:19:27.831Z,3.05
2018-02-18T01:20:27.820Z,2.87
2018-02-18T01:21:27.833Z,2.82
2018-02-18T01:22:27.841Z,2.82
2018-02-18T01:23:27.855Z,2.69
2018-02-18T01:24:27.890Z,2.81
2018-02-18T01:25:27.884Z,2.84
2018-02-18T01:26:27.928Z,3.10
2018-02-18T01:27:27.913Z,3.14
2018-02-18T01:28:27.928Z,3.03
2018-02-18T01:29:27.940Z,3.11
2018-02-18T01:30:27.997Z,3.06
2018-02-18T01:31:27.968Z,3.08
2018-02-18T01:32:27.999Z,3.10
2018-02-18T01:33:27.997Z,3.21
2018-02-18T01:34:28.006Z,3.03
2018-02-18T01:35:28.018Z,3.00
2018-02-18T01:36:28.053Z,3.11
2018-02-18T01:37:28.045Z,3.13
2018-02-18T01:38:28.059Z,3.17
2018-02-18T01:39:28.075Z,3.11
2018-02-18T01:40:28.110Z,3.03
2018-02-18T01:41:28.104Z,3.06
2018-02-18T01:42:28.116Z,3.24
2018-02-18T01:43:28.160Z,3.10
2018-02-18T01:44:28.140Z,3.17
2018-02-18T01:45:28.158Z,3.24
2018-02-18T01:46:28.173Z,3.35
2018-02-18T01:47:28.184Z,3.26
2018-02-18T01:48:28.201Z,3.06
2018-02-18T01:49:28.244Z,3.08
2018-02-18T01:50:28.227Z,3.08
2018-02-18T01:51:28.234Z,3.08
2018-02-18T01:52:28.250Z,3.02
2018-02-18T01:53:28.268Z,2.82
2018-02-18T01:54:28.293Z,2.85
2018-02-18T01:55:28.293Z,3.10
2018-02-18T01:56:28.307Z,3.08
2018-02-18T01:57:28.315Z,3.18
2018-02-18T01:58:28.357Z,3.08
2018-02-18T01:59:28.344Z,3.26
2018-02-18T02:00:28.365Z,3.03
2018-02-18T02:01:28.372Z,3.06
2018-02-18T02:02:28.383Z,3.14
2018-02-18T02:03:28.421Z,3.06
2018-02-18T02:04:28.415Z,2.99
2018-02-18T02:05:28.446Z,2.84
2018-02-18T02:06:28.443Z,3.00
2018-02-18T02:07:28.455Z,3.06
2018-02-18T02:08:28.462Z,3.20
2018-02-18T02:09:28.484Z,3.29
2018-02-18T02:10:28.534Z,2.97
2018-02-18T02:11:28.506Z,2.87
2018-02-18T02:12:28.525Z,2.82
2018-02-18T02:13:28.532Z,2.84
2018-02-18T02:14:28.547Z,2.97
2018-02-18T02:15:28.564Z,2.82
2018-02-18T02:16:28.613Z,2.90
2018-02-18T02:17:28.585Z,2.99
2018-02-18T02:18:28.608Z,2.82
2018-02-18T02:19:28.620Z,2.78
2018-02-18T02:20:28.636Z,2.84
2018-02-18T02:21:28.646Z,2.87
2018-02-18T02:22:28.689Z,2.92
2018-02-18T02:23:28.680Z,2.97
2018-02-18T02:24:28.681Z,3.31
2018-02-18T02:25:28.694Z,3.05
2018-02-18T02:26:28.710Z,3.10
2018-02-18T02:27:28.749Z,3.05
2018-02-18T02:28:28.738Z,3.05
2018-02-18T02:29:28.752Z,2.97
2018-02-18T02:30:28.786Z,2.81
2018-02-18T02:31:28.780Z,2.90
2018-02-18T02:32:28.796Z,2.81
2018-02-18T02:33:28.843Z,2.81
2018-02-18T02:34:28.820Z,2.77
2018-02-18T02:35:28.837Z,2.82
2018-02-18T02:36:28.858Z,2.99
2018-02-18T02:37:28.861Z,2.96
2018-02-18T02:38:28.908Z,2.84
2018-02-18T02:39:28.886Z,2.87
2018-02-18T02:40:28.898Z,2.92
2018-02-18T02:41:28.916Z,2.84
2018-02-18T02:42:28.937Z,2.84
2018-02-18T02:43:28.962Z,2.96
2018-02-18T02:44:28.959Z,2.95
2018-02-18T02:45:28.970Z,2.90
2018-02-18T02:46:28.982Z,3.06
2018-02-18T02:47:28.991Z,3.03
2018-02-18T02:48:29.046Z,3.02
2018-02-18T02:49:29.023Z,3.06
2018-02-18T02:50:29.039Z,2.92
2018-02-18T02:51:29.051Z,2.85
2018-02-18T02:52:29.065Z,2.78
2018-02-18T02:53:29.090Z,2.82
2018-02-18T02:54:29.088Z,2.89
2018-02-18T02:55:29.122Z,2.95
2018-02-18T02:56:29.120Z,2.78
2018-02-18T02:57:29.130Z,2.84
2018-02-18T02:58:29.141Z,2.89
2018-02-18T02:59:29.158Z,2.79
2018-02-18T03:00:29.214Z,2.89
2018-02-18T03:01:29.192Z,3.05
2018-02-18T03:02:29.203Z,2.79
2018-02-18T03:03:29.208Z,2.77
2018-02-18T03:04:29.225Z,2.66
2018-02-18T03:05:29.268Z,2.89
2018-02-18T03:06:29.251Z,2.87
2018-02-18T03:07:29.265Z,2.64
2018-02-18T03:08:29.279Z,2.82
2018-02-18T03:09:29.297Z,2.79
2018-02-18T03:10:29.325Z,2.63
2018-02-18T03:11:29.320Z,2.64
2018-02-18T03:12:29.332Z,2.54
2018-02-18T03:13:29.365Z,2.69
2018-02-18T03:14:29.352Z,2.82
2018-02-18T03:15:29.374Z,2.69
2018-02-18T03:16:29.392Z,2.78
2018-02-18T03:17:29.399Z,2.77
2018-02-18T03:18:29.433Z,2.71
2018-02-18T03:19:29.424Z,2.66
2018-02-18T03:20:29.486Z,2.66
2018-02-18T03:21:29.454Z,2.66
2018-02-18T03:22:29.473Z,2.74
2018-02-18T03:23:29.475Z,2.64
2018-02-18T03:24:29.499Z,2.81
2018-02-18T03:25:29.524Z,2.66
2018-02-18T03:26:29.516Z,2.64
2018-02-18T03:27:29.540Z,2.72
2018-02-18T03:28:29.548Z,2.69
2018-02-18T03:29:29.559Z,2.64
2018-02-18T03:30:29.610Z,2.60
2018-02-18T03:31:29.596Z,2.45
2018-02-18T03:32:29.605Z,2.56
2018-02-18T03:33:29.613Z,2.64
2018-02-18T03:34:29.630Z,2.43
2018-02-18T03:35:29.645Z,2.46
2018-02-18T03:36:29.683Z,2.52
2018-02-18T03:37:29.660Z,2.60
2018-02-18T03:38:29.682Z,2.34
2018-02-18T03:39:29.698Z,2.35
2018-02-18T03:40:29.701Z,2.30
2018-02-18T03:41:29.748Z,2.27
2018-02-18T03:42:29.731Z,2.16
2018-02-18T03:43:29.746Z,2.21
2018-02-18T03:44:29.763Z,2.43
2018-02-18T03:45:29.769Z,2.38
2018-02-18T03:46:29.801Z,2.41
2018-02-18T03:47:29.797Z,2.34
2018-02-18T03:48:29.815Z,2.39
2018-02-18T03:49:29.822Z,2.35
2018-02-18T03:50:29.855Z,2.30
2018-02-18T03:51:29.846Z,2.49
2018-02-18T03:52:29.865Z,2.59
2018-02-18T03:53:29.893Z,2.53
2018-02-18T03:54:29.890Z,2.48
2018-02-18T03:55:29.941Z,2.35
2018-02-18T03:56:29.917Z,2.45
2018-02-18T03:57:29.926Z,2.57
2018-02-18T03:58:29.941Z,2.69
2018-02-18T03:59:29.952Z,2.64
2018-02-18T04:00:30.000Z,2.54
2018-02-18T04:01:29.977Z,2.63
2018-02-18T04:02:29.995Z,2.66
2018-02-18T04:03:30.022Z,2.66
2018-02-18T04:04:30.033Z,2.59
2018-02-18T04:05:30.039Z,2.66
2018-02-18T04:06:30.065Z,2.82
2018-02-18T04:07:30.060Z,2.71
2018-02-18T04:08:30.123Z,2.71
2018-02-18T04:09:30.081Z,2.71
2018-02-18T04:10:30.102Z,2.66
2018-02-18T04:11:30.118Z,2.69
2018-02-18T04:12:30.129Z,2.77
2018-02-18T04:13:30.165Z,2.67
2018-02-18T04:14:30.255Z,2.84
2018-02-18T04:15:30.181Z,2.66
2018-02-18T04:16:30.186Z,2.82
2018-02-18T04:17:30.192Z,2.79
2018-02-18T04:18:30.224Z,2.84
2018-02-18T04:19:30.227Z,2.97
2018-02-18T04:20:30.244Z,2.99
2018-02-18T04:21:30.260Z,3.02
2018-02-18T04:22:30.262Z,2.74
2018-02-18T04:23:30.293Z,2.54
2018-02-18T04:24:30.323Z,2.57
2018-02-18T04:25:30.305Z,2.78
2018-02-18T04:26:30.317Z,2.77
2018-02-18T04:27:30.342Z,2.64
2018-02-18T04:28:30.366Z,2.63
2018-02-18T04:29:30.356Z,2.66
2018-02-18T04:30:30.376Z,2.82
2018-02-18T04:31:30.393Z,2.66
2018-02-18T04:32:30.399Z,2.64
2018-02-18T04:33:30.446Z,2.61
2018-02-18T04:34:30.417Z,2.56
2018-02-18T04:35:30.437Z,2.71
2018-02-18T04:36:30.455Z,2.66
2018-02-18T04:37:30.468Z,2.59
2018-02-18T04:38:30.496Z,2.71
2018-02-18T04:39:30.490Z,2.64
2018-02-18T04:40:30.501Z,2.64
2018-02-18T04:41:30.515Z,2.64
2018-02-18T04:42:30.539Z,2.75
2018-02-18T04:43:30.571Z,2.53
2018-02-18T04:44:30.556Z,2.61
2018-02-18T04:45:30.573Z,2.77
2018-02-18T04:46:30.585Z,2.66
2018-02-18T04:47:30.632Z,2.61
2018-02-18T04:48:30.612Z,2.56
2018-02-18T04:49:30.623Z,2.52
2018-02-18T04:50:30.651Z,2.57
2018-02-18T04:51:30.650Z,2.63
2018-02-18T04:52:30.687Z,2.75
2018-02-18T04:53:30.711Z,2.78
2018-02-18T04:54:30.692Z,2.60
2018-02-18T04:55:30.705Z,2.72
2018-02-18T04:56:30.722Z,2.54
2018-02-18T04:57:30.732Z,2.45
2018-02-18T04:58:30.763Z,2.60
2018-02-18T04:59:30.752Z,2.61
2018-02-18T05:00:30.775Z,2.59
2018-02-18T05:01:30.784Z,2.66
2018-02-18T05:02:30.792Z,2.78
2018-02-18T05:03:30.830Z,2.63
2018-02-18T05:04:30.820Z,2.89
2018-02-18T05:05:30.851Z,2.67
2018-02-18T05:06:30.848Z,2.56
2018-02-18T05:07:30.858Z,2.52
2018-02-18T05:08:30.896Z,2.74
2018-02-18T05:09:30.886Z,2.66
2018-02-18T05:10:30.951Z,2.66
2018-02-18T05:11:30.914Z,2.67
2018-02-18T05:12:30.925Z,2.46
2018-02-18T05:13:30.941Z,2.69
2018-02-18T05:14:30.965Z,2.72
2018-02-18T05:15:30.970Z,2.56
2018-02-18T05:16:30.999Z,2.53
2018-02-18T05:17:30.992Z,2.66
2018-02-18T05:18:31.018Z,2.74
2018-02-18T05:19:31.026Z,2.66
2018-02-18T05:20:31.053Z,2.57
2018-02-18T05:21:31.053Z,2.66
2018-02-18T05:22:31.058Z,2.52
2018-02-18T05:23:31.079Z,2.49
2018-02-18T05:24:31.093Z,2.56
2018-02-18T05:25:31.139Z,2.45
2018-02-18T05:26:31.121Z,2.46
2018-02-18T05:27:31.128Z,2.46
2018-02-18T05:28:31.149Z,2.43
2018-02-18T05:29:31.181Z,2.66
2018-02-18T05:30:31.189Z,2.42
2018-02-18T05:31:31.204Z,2.43
2018-02-18T05:32:31.243Z,2.30
2018-02-18T05:33:31.255Z,2.43
2018-02-18T05:34:31.238Z,2.39
2018-02-18T05:35:31.244Z,2.52
2018-02-18T05:36:31.253Z,2.61
2018-02-18T05:37:31.263Z,2.84
2018-02-18T05:38:31.280Z,2.99
2018-02-18T05:39:31.333Z,2.71
2018-02-18T05:40:31.307Z,2.59
2018-02-18T05:41:31.328Z,2.66
2018-02-18T05:42:31.332Z,2.72
2018-02-18T05:43:31.352Z,2.64
2018-02-18T05:44:31.416Z,2.61
2018-02-18T05:45:31.383Z,2.49
2018-02-18T05:46:31.413Z,2.45
2018-02-18T05:47:31.429Z,2.63
2018-02-18T05:48:31.432Z,2.66
2018-02-18T05:49:31.470Z,2.59
2018-02-18T05:50:31.445Z,2.66
2018-02-18T05:51:31.461Z,2.66
2018-02-18T05:52:31.488Z,2.67
2018-02-18T05:53:31.489Z,2.53
2018-02-18T05:54:31.517Z,2.64
2018-02-18T05:55:31.566Z,2.61
2018-02-18T05:56:31.536Z,2.63
2018-02-18T05:57:31.547Z,2.61
2018-02-18T05:58:31.573Z,2.60
2018-02-18T05:59:31.572Z,2.74
2018-02-18T06:00:31.600Z,2.72
2018-02-18T06:01:31.591Z,2.72
2018-02-18T06:02:31.609Z,2.72
2018-02-18T06:03:31.612Z,2.53
2018-02-18T06:04:31.645Z,2.54
2018-02-18T06:05:31.659Z,2.54
2018-02-18T06:06:31.656Z,2.54
2018-02-18T06:07:31.667Z,2.56
2018-02-18T06:08:31.707Z,2.64
2018-02-18T06:09:31.683Z,2.66
2018-02-18T06:10:31.698Z,2.56
2018-02-18T06:11:31.713Z,2.59
2018-02-18T06:12:31.729Z,2.74
2018-02-18T06:13:31.761Z,2.57
2018-02-18T06:14:31.755Z,2.72
2018-02-18T06:15:31.795Z,2.66
2018-02-18T06:16:31.777Z,2.74
2018-02-18T06:17:31.792Z,2.72
2018-02-18T06:18:31.814Z,2.95
2018-02-18T06:19:31.819Z,2.75
2018-02-18T06:20:31.835Z,2.90
2018-02-18T06:21:31.879Z,2.67
2018-02-18T06:22:31.863Z,2.59
2018-02-18T06:23:31.876Z,2.49
2018-02-18T06:24:31.886Z,2.71
2018-02-18T06:25:31.894Z,2.72
2018-02-18T06:26:31.920Z,2.67
2018-02-18T06:27:31.947Z,2.66
2018-02-18T06:28:31.941Z,2.85
2018-02-18T06:29:31.947Z,2.75
2018-02-18T06:30:32.633Z,2.74
2018-02-18T06:31:31.975Z,2.77
2018-02-18T06:32:31.991Z,2.67
2018-02-18T06:33:32.031Z,2.56
2018-02-18T06:34:32.130Z,2.61
2018-02-18T06:35:32.038Z,2.64
2018-02-18T06:36:32.048Z,2.63
2018-02-18T06:37:32.061Z,2.52
2018-02-18T06:38:32.089Z,2.59
2018-02-18T06:39:32.094Z,2.67
2018-02-18T06:40:32.132Z,2.67
2018-02-18T06:41:32.118Z,2.61
2018-02-18T06:42:32.126Z,2.64
2018-02-18T06:43:32.143Z,2.77
2018-02-18T06:44:32.153Z,2.57
2018-02-18T06:45:32.284Z,2.53
2018-02-18T06:46:32.181Z,2.57
2018-02-18T06:47:32.283Z,2.59
2018-02-18T06:48:32.258Z,2.79
2018-02-18T06:49:32.216Z,2.71
2018-02-18T06:50:32.255Z,2.67
2018-02-18T06:51:32.265Z,2.57
2018-02-18T06:52:32.260Z,2.67
2018-02-18T06:53:32.268Z,2.82
2018-02-18T06:54:32.301Z,2.81
2018-02-18T06:55:32.301Z,2.81
2018-02-18T06:56:32.314Z,2.89
2018-02-18T06:57:32.349Z,3.05
2018-02-18T06:58:32.359Z,2.93
2018-02-18T06:59:32.353Z,2.93
2018-02-18T07:00:32.366Z,2.82
2018-02-18T07:01:32.373Z,2.81
2018-02-18T07:02:32.391Z,2.84
2018-02-18T07:03:37.131Z,2.81
2018-02-18T07:04:32.422Z,2.81
2018-02-18T07:05:32.430Z,2.66
2018-02-18T07:06:32.442Z,2.59
2018-02-18T07:07:32.459Z,2.46
2018-02-18T07:08:32.470Z,2.66
2018-02-18T07:09:32.505Z,2.54
2018-02-18T07:10:32.492Z,2.54
2018-02-18T07:11:32.506Z,2.57
2018-02-18T07:12:32.523Z,2.61
2018-02-18T07:13:32.561Z,2.57
2018-02-18T07:14:32.552Z,2.75
2018-02-18T07:15:32.564Z,2.53
2018-02-18T07:16:32.579Z,2.69
2018-02-18T07:17:32.590Z,2.72
2018-02-18T07:18:32.632Z,2.81
2018-02-18T07:19:32.638Z,2.81
2018-02-18T07:20:32.632Z,2.61
2018-02-18T07:21:35.685Z,2.66
2018-02-18T07:22:46.383Z,2.75
2018-02-18T07:23:32.910Z,2.56
2018-02-18T07:24:34.054Z,2.56
2018-02-18T07:25:32.751Z,2.67
2018-02-18T07:26:32.724Z,2.71
2018-02-18T07:27:32.868Z,2.71
2018-02-18T07:31:58.048Z,2.97
2018-02-18T07:32:38.187Z,2.97
2018-02-18T07:33:38.044Z,2.85
2018-02-18T07:34:37.994Z,3.03
2018-02-18T07:35:38.072Z,2.95
2018-02-18T07:36:38.041Z,2.79
2018-02-18T07:37:38.089Z,2.81
2018-02-18T07:38:38.030Z,2.74
2018-02-18T07:39:38.073Z,2.78
2018-02-18T07:40:38.061Z,2.63
2018-02-18T07:41:38.068Z,2.72
2018-02-18T07:42:38.116Z,2.96
2018-02-18T07:43:38.095Z,2.75
2018-02-18T07:44:38.115Z,2.89
2018-02-18T07:45:38.121Z,2.82
2018-02-18T07:46:38.132Z,2.74
2018-02-18T07:47:38.171Z,2.74
2018-02-18T07:48:39.066Z,2.75
2018-02-18T07:49:38.175Z,2.82
2018-02-18T07:50:38.210Z,2.79
2018-02-18T07:51:38.207Z,2.81
2018-02-18T07:52:38.210Z,2.90
2018-02-18T07:53:38.242Z,3.08
2018-02-18T07:54:38.352Z,3.08
2018-02-18T07:55:38.289Z,3.28
2018-02-18T07:56:38.266Z,3.21
2018-02-18T07:57:38.286Z,3.42
2018-02-18T07:58:38.296Z,3.45
2018-02-18T07:59:38.317Z,3.17
2018-02-18T08:00:38.357Z,3.18
2018-02-18T08:01:38.333Z,3.11
2018-02-18T08:02:38.352Z,3.00
2018-02-18T08:03:38.367Z,2.90
2018-02-18T08:04:38.384Z,3.06
2018-02-18T08:05:38.430Z,3.11
2018-02-18T08:06:38.410Z,3.10
2018-02-18T08:07:38.419Z,2.99
2018-02-18T08:08:38.440Z,3.15
2018-02-18T08:09:38.445Z,3.08
2018-02-18T08:10:38.623Z,2.93
2018-02-18T08:11:38.468Z,3.02
2018-02-18T08:12:38.480Z,2.97
2018-02-18T08:13:38.498Z,2.97
2018-02-18T08:14:38.505Z,2.97
2018-02-18T08:15:38.523Z,3.02
2018-02-18T08:16:38.580Z,3.13
2018-02-18T08:17:38.558Z,3.15
2018-02-18T08:18:38.560Z,3.08
2018-02-18T08:19:38.608Z,3.06
2018-02-18T08:20:38.592Z,3.10
2018-02-18T08:21:38.619Z,2.95
2018-02-18T08:22:38.625Z,2.90
2018-02-18T08:23:38.627Z,2.89
2018-02-18T08:24:38.641Z,2.97
2018-02-18T08:25:38.664Z,2.96
2018-02-18T08:26:39.126Z,2.87
2018-02-18T08:27:38.678Z,3.08
2018-02-18T08:28:38.693Z,3.26
2018-02-18T08:29:38.723Z,3.24
2018-02-18T08:30:38.724Z,3.05
2018-02-18T08:31:38.738Z,3.17
2018-02-18T08:32:38.761Z,3.43
2018-02-18T08:33:38.790Z,3.32
2018-02-18T08:34:38.768Z,3.26
2018-02-18T08:35:38.783Z,3.20
2018-02-18T08:36:38.796Z,3.05
2018-02-18T08:37:38.815Z,3.10
2018-02-18T08:38:39.590Z,3.05
2018-02-18T08:39:38.833Z,3.06
2018-02-18T08:40:38.849Z,3.08
2018-02-18T08:41:38.863Z,3.08
2018-02-18T08:42:38.907Z,3.21
2018-02-18T08:43:38.893Z,3.26
2018-02-18T08:44:38.902Z,3.39
2018-02-18T08:45:38.917Z,3.43
2018-02-18T08:46:38.959Z,3.72
2018-02-18T08:47:38.975Z,3.90
2018-02-18T08:48:38.968Z,3.57
2018-02-18T08:49:38.969Z,3.62
2018-02-18T08:50:38.984Z,3.45
2018-02-18T08:51:38.996Z,3.43
2018-02-18T08:52:39.028Z,3.60
2018-02-18T08:53:39.028Z,3.35
2018-02-18T08:54:39.036Z,3.50
2018-02-18T08:55:39.049Z,3.26
2018-02-18T08:56:39.109Z,3.23
2018-02-18T08:57:39.076Z,3.17
2018-02-18T08:58:39.093Z,3.11
2018-02-18T08:59:39.101Z,2.97
2018-02-18T09:00:39.111Z,3.02
2018-02-18T09:01:39.172Z,3.05
2018-02-18T09:02:39.144Z,3.18
2018-02-18T09:03:39.152Z,3.13
2018-02-18T09:04:39.175Z,3.13
2018-02-18T09:05:39.181Z,3.17
2018-02-18T09:06:39.225Z,3.23
2018-02-18T09:07:39.234Z,3.06
2018-02-18T09:08:39.224Z,2.95
2018-02-18T09:09:39.233Z,3.05
2018-02-18T09:10:39.250Z,3.24
2018-02-18T09:11:39.268Z,3.20
2018-02-18T09:12:39.312Z,3.48
2018-02-18T09:13:39.302Z,3.79
2018-02-18T09:14:39.300Z,3.47
2018-02-18T09:15:39.336Z,3.83
2018-02-18T09:16:39.343Z,3.88
2018-02-18T09:17:40.112Z,4.04
2018-02-18T09:18:39.390Z,3.69
2018-02-18T09:19:39.369Z,3.88
2018-02-18T09:20:39.388Z,3.72
2018-02-18T09:21:39.398Z,3.96
2018-02-18T09:22:39.448Z,4.16
2018-02-18T09:23:39.466Z,3.80
2018-02-18T09:24:39.440Z,3.87
2018-02-18T09:25:39.453Z,3.76
2018-02-18T09:26:39.465Z,3.83
2018-02-18T09:27:39.475Z,3.94
2018-02-18T09:28:39.526Z,3.86
2018-02-18T09:29:39.502Z,4.04
2018-02-18T09:30:39.515Z,3.96
2018-02-18T09:31:39.529Z,3.97
2018-02-18T09:32:39.542Z,4.30
2018-02-18T09:33:40.133Z,4.37
2018-02-18T09:34:39.612Z,4.33
2018-02-18T09:35:39.603Z,4.34
2018-02-18T09:36:39.596Z,3.87
2018-02-18T09:37:39.789Z,3.80
2018-02-18T09:38:39.620Z,3.83
2018-02-18T09:39:39.635Z,3.84
2018-02-18T09:40:39.706Z,3.87
2018-02-18T09:41:39.665Z,3.70
2018-02-18T09:42:39.696Z,4.09
2018-02-18T09:43:39.721Z,3.97
2018-02-18T09:44:39.701Z,3.79
2018-02-18T09:45:39.746Z,3.96
2018-02-18T09:46:39.729Z,3.80
2018-02-18T09:47:39.743Z,4.15
2018-02-18T09:48:39.762Z,4.02
2018-02-18T09:49:40.005Z,4.11
2018-02-18T09:50:39.817Z,3.97
2018-02-18T09:51:39.799Z,4.15
2018-02-18T09:52:39.816Z,4.75
2018-02-18T09:53:39.828Z,4.91
2018-02-18T09:54:39.837Z,4.78
2018-02-18T09:55:40.145Z,4.59
2018-02-18T09:56:39.903Z,4.78
2018-02-18T09:57:39.876Z,4.75
2018-02-18T09:58:39.904Z,4.59
2018-02-18T09:59:39.906Z,4.75
2018-02-18T10:00:39.961Z,4.97
2018-02-18T10:01:39.929Z,5.15
2018-02-18T10:02:39.953Z,5.33
2018-02-18T10:03:39.965Z,5.30
2018-02-18T10:04:39.970Z,5.12
2018-02-18T10:05:40.019Z,5.13
2018-02-18T10:06:39.995Z,5.53
2018-02-18T10:07:40.651Z,5.57
2018-02-18T10:08:40.030Z,5.30
2018-02-18T10:09:40.040Z,5.03
2018-02-18T10:10:40.070Z,5.06
2018-02-18T10:11:40.065Z,5.10
2018-02-18T10:12:40.079Z,5.27
2018-02-18T10:13:40.094Z,5.06
2018-02-18T10:14:40.102Z,5.46
2018-02-18T10:15:40.150Z,5.31
2018-02-18T10:16:40.131Z,5.00
2018-02-18T10:17:40.142Z,4.97
2018-02-18T10:18:40.157Z,5.33
2018-02-18T10:19:40.171Z,4.88
2018-02-18T10:20:40.206Z,5.30
2018-02-18T10:21:40.195Z,5.39
2018-02-18T10:22:40.244Z,5.00
2018-02-18T10:23:40.226Z,4.72
2018-02-18T10:24:40.319Z,4.94
2018-02-18T10:25:40.254Z,4.99
2018-02-18T10:26:40.460Z,4.91
2018-02-18T10:27:41.175Z,4.59
2018-02-18T10:28:40.431Z,4.37
2018-02-18T10:29:41.238Z,4.66
2018-02-18T10:30:41.132Z,4.45
2018-02-18T10:31:40.347Z,4.59
2018-02-18T10:32:40.357Z,4.33
2018-02-18T10:33:40.800Z,4.33
2018-02-18T10:34:40.373Z,4.42
2018-02-18T10:35:40.385Z,4.89
2018-02-18T10:36:40.397Z,4.89
2018-02-18T10:37:40.417Z,5.12
2018-02-18T10:38:40.426Z,5.24
2018-02-18T10:39:40.460Z,5.60
2018-02-18T10:40:40.495Z,5.28
2018-02-18T10:41:40.473Z,5.21
2018-02-18T10:42:41.777Z,5.28
2018-02-18T10:43:40.500Z,5.30
2018-02-18T10:44:40.511Z,4.92
2018-02-18T10:45:40.523Z,4.94
2018-02-18T10:46:40.568Z,5.13
2018-02-18T10:47:40.580Z,5.38
2018-02-18T10:48:40.562Z,5.27
2018-02-18T10:49:40.581Z,5.39
2018-02-18T10:50:40.589Z,5.36
2018-02-18T10:51:40.635Z,5.21
2018-02-18T10:52:40.639Z,5.28
2018-02-18T10:53:40.629Z,5.17
2018-02-18T10:54:40.644Z,5.10
2018-02-18T10:55:40.663Z,4.73
2018-02-18T10:56:40.690Z,4.54
2018-02-18T10:57:40.688Z,4.86
2018-02-18T10:58:40.719Z,5.12
2018-02-18T10:59:40.782Z,5.45
2018-02-18T11:00:40.726Z,5.56
2018-02-18T11:01:40.741Z,5.42
2018-02-18T11:02:40.754Z,5.35
2018-02-18T11:03:40.787Z,5.27
2018-02-18T11:04:40.782Z,5.00
2018-02-18T11:05:40.794Z,4.99
2018-02-18T11:06:41.479Z,5.31
2018-02-18T11:07:40.843Z,5.75
2018-02-18T11:08:40.856Z,5.93
2018-02-18T11:09:40.856Z,5.86
2018-02-18T11:10:40.900Z,5.63
2018-02-18T11:11:41.526Z,5.57
2018-02-18T11:12:40.891Z,5.46
2018-02-18T11:13:42.632Z,5.51
2018-02-18T11:14:40.920Z,5.58
2018-02-18T11:15:40.971Z,5.89
2018-02-18T11:16:40.948Z,5.74
2018-02-18T11:17:41.013Z,5.91
2018-02-18T11:18:40.970Z,5.94
2018-02-18T11:19:40.985Z,5.71
2018-02-18T11:20:41.027Z,5.58
2018-02-18T11:21:41.032Z,5.09
2018-02-18T11:22:41.030Z,4.85
2018-02-18T11:23:41.062Z,5.04
2018-02-18T11:24:41.049Z,5.02
2018-02-18T11:25:41.066Z,4.58
2018-02-18T11:26:41.082Z,4.73
2018-02-18T11:27:41.143Z,4.58
2018-02-18T11:28:41.113Z,4.99
2018-02-18T11:29:41.140Z,5.03
2018-02-18T11:30:41.134Z,5.22
2018-02-18T11:31:41.151Z,5.60
2018-02-18T11:32:41.164Z,5.27
2018-02-18T11:33:41.197Z,5.33
2018-02-18T11:34:41.191Z,5.81
2018-02-18T11:35:41.220Z,5.49
2018-02-18T11:36:41.215Z,5.12
2018-02-18T11:37:41.233Z,5.43
2018-02-18T11:38:41.262Z,5.28
2018-02-18T11:39:41.261Z,5.13
2018-02-18T11:40:41.307Z,5.24
2018-02-18T11:41:41.287Z,5.38
2018-02-18T11:42:41.295Z,5.45
2018-02-18T11:43:41.314Z,5.58
2018-02-18T11:44:41.331Z,5.46
2018-02-18T11:45:41.370Z,5.49
2018-02-18T11:46:41.355Z,5.45
2018-02-18T11:47:41.365Z,5.38
2018-02-18T11:48:41.379Z,5.02
2018-02-18T11:49:41.398Z,5.30
2018-02-18T11:50:41.436Z,5.09
2018-02-18T11:51:41.419Z,4.94
2018-02-18T11:52:41.437Z,5.21
2018-02-18T11:53:41.449Z,5.56
2018-02-18T11:54:42.288Z,5.15
2018-02-18T11:55:42.064Z,5.06
2018-02-18T11:56:41.487Z,5.48
2018-02-18T11:57:41.560Z,5.42
2018-02-18T11:58:41.531Z,5.65
2018-02-18T11:59:41.531Z,5.33
2018-02-18T12:00:41.544Z,5.31
2018-02-18T12:01:41.800Z,5.42
2018-02-18T12:02:41.617Z,5.57
2018-02-18T12:03:41.634Z,5.33
2018-02-18T12:04:41.654Z,5.20
2018-02-18T12:05:41.652Z,5.35
2018-02-18T12:06:41.620Z,5.20
2018-02-18T12:07:41.649Z,5.03
2018-02-18T12:08:41.665Z,5.40
2018-02-18T12:09:41.663Z,4.75
2018-02-18T12:10:41.699Z,5.21
2018-02-18T12:11:41.705Z,5.40
2018-02-18T12:12:41.699Z,5.72
2018-02-18T12:13:41.729Z,5.51
2018-02-18T12:14:41.730Z,5.36
2018-02-18T12:15:41.764Z,5.35
2018-02-18T12:16:41.757Z,5.30
2018-02-18T12:17:41.803Z,5.28
2018-02-18T12:18:41.785Z,5.71
2018-02-18T12:19:41.795Z,5.91
2018-02-18T12:20:41.810Z,5.61
2018-02-18T12:21:41.846Z,5.31
2018-02-18T12:22:41.857Z,5.03
2018-02-18T12:23:41.852Z,4.84
2018-02-18T12:24:41.867Z,4.91
2018-02-18T12:25:41.932Z,5.04
2018-02-18T12:26:41.894Z,4.92
2018-02-18T12:27:41.905Z,4.96
2018-02-18T12:28:41.920Z,5.31
2018-02-18T12:29:41.952Z,5.33
2018-02-18T12:30:42.017Z,5.43
2018-02-18T12:31:41.975Z,5.71
2018-02-18T12:32:41.972Z,5.20
2018-02-18T12:33:41.987Z,4.73
2018-02-18T12:34:42.003Z,4.77
2018-02-18T12:35:42.038Z,5.10
2018-02-18T12:36:42.043Z,5.42
2018-02-18T12:37:42.040Z,5.49
2018-02-18T12:38:42.057Z,5.56
2018-02-18T12:39:42.066Z,5.64
2018-02-18T12:40:42.161Z,5.72
2018-02-18T12:41:42.094Z,5.31
2018-02-18T12:42:42.111Z,4.94
2018-02-18T12:43:42.128Z,4.91
2018-02-18T12:44:42.154Z,5.10
2018-02-18T12:45:42.173Z,5.30
2018-02-18T12:46:42.181Z,5.18
2018-02-18T12:47:42.288Z,5.13
2018-02-18T12:48:42.195Z,5.12
2018-02-18T12:49:42.350Z,5.20
2018-02-18T12:50:42.221Z,5.09
2018-02-18T12:51:42.284Z,5.20
2018-02-18T12:52:42.255Z,5.42
2018-02-18T12:53:42.288Z,5.31
2018-02-18T12:54:42.341Z,5.42
2018-02-18T12:55:42.284Z,5.76
2018-02-18T12:56:42.304Z,6.34
2018-02-18T12:57:42.395Z,5.82
2018-02-18T12:58:42.329Z,5.78
2018-02-18T12:59:42.343Z,5.76
2018-02-18T13:00:42.355Z,5.65
2018-02-18T13:01:42.373Z,5.36
2018-02-18T13:02:42.404Z,5.90
2018-02-18T13:03:42.937Z,5.64
2018-02-18T13:04:42.964Z,5.90
2018-02-18T13:05:42.428Z,5.71
2018-02-18T13:06:42.438Z,5.60
2018-02-18T13:07:42.474Z,5.61
2018-02-18T13:08:42.471Z,5.33
2018-02-18T13:09:42.520Z,5.31
2018-02-18T13:10:42.496Z,5.53
2018-02-18T13:11:42.510Z,5.72
2018-02-18T13:12:42.523Z,5.67
2018-02-18T13:13:42.549Z,6.06
2018-02-18T13:14:42.586Z,6.06
2018-02-18T13:15:42.562Z,5.86
2018-02-18T13:16:42.644Z,5.53
2018-02-18T13:17:42.597Z,5.48
2018-02-18T13:18:42.679Z,5.78
2018-02-18T13:19:42.618Z,5.42
2018-02-18T13:20:42.643Z,5.49
2018-02-18T13:21:42.723Z,5.68